Time;durP1;ratioP1;P1;durP2;ratioP2;P2;SDS_P1;SDS_P2;PMS_P1;PMS_P2;Temp;Humidity;BMP_temperature;BMP_pressure;BME280_temperature;BME280_humidity;BME280_pressure;Samples;Min_cycle;Max_cycle;Signal;HPM_P1;HPM_P2
2022/09/28 00:00:45;;;;;;;32.80;25.20;;;;;;;14.35;92.07;98303.90;1663162;86;21164;-75
2022/09/28 00:03:11;;;;;;;30.77;25.23;;;;;;;14.30;92.18;98304.28;1658778;84;21229;-77
2022/09/28 00:05:37;;;;;;;32.45;23.98;;;;;;;14.25;92.38;98301.47;1658165;86;21098;-76
2022/09/28 00:08:05;;;;;;;30.10;22.90;;;;;;;14.25;92.47;98301.47;1654731;85;21069;-76
2022/09/28 00:10:31;;;;;;;36.63;24.25;;;;;;;14.33;92.17;98301.14;1657712;84;21026;-75
2022/09/28 00:13:00;;;;;;;29.30;22.80;;;;;;;14.31;92.23;98310.73;1659404;86;21103;-75
2022/09/28 00:15:26;;;;;;;24.32;21.10;;;;;;;14.27;92.44;98321.55;1667797;84;21536;-75
2022/09/28 00:20:48;;;;;;;26.52;21.82;;;;;;;14.29;92.53;98314.16;1867957;75;28159;-76
2022/09/28 00:23:14;;;;;;;28.32;22.67;;;;;;;14.26;92.35;98319.14;1843198;76;21001;-74
2022/09/28 00:25:40;;;;;;;29.12;21.30;;;;;;;14.18;92.47;98320.27;1839354;76;21133;-74
2022/09/28 00:28:07;;;;;;;25.82;20.68;;;;;;;14.18;92.56;98323.44;1852098;77;20902;-75
2022/09/28 00:30:34;;;;;;;28.30;21.97;;;;;;;14.21;92.37;98327.81;1833696;77;21039;-78
2022/09/28 00:33:01;;;;;;;25.85;22.05;;;;;;;14.15;92.46;98338.06;1830134;77;21579;-77
2022/09/28 00:35:27;;;;;;;27.17;22.22;;;;;;;14.01;92.71;98334.75;1826210;76;21002;-77
2022/09/28 00:37:54;;;;;;;25.97;20.43;;;;;;;13.89;93.32;98329.89;1836425;77;21038;-77
2022/09/28 00:40:21;;;;;;;25.72;20.37;;;;;;;13.85;93.46;98325.51;1811315;78;20985;-76
2022/09/28 00:42:49;;;;;;;29.48;21.68;;;;;;;13.91;93.51;98315.27;1774330;80;20930;-75
2022/09/28 00:45:15;;;;;;;26.57;21.60;;;;;;;13.90;93.84;98314.95;1786666;79;21096;-78
2022/09/28 00:47:50;;;;;;;28.57;22.32;;;;;;;13.87;94.21;98310.08;1778567;79;21064;-79
2022/09/28 00:50:29;;;;;;;25.25;19.37;;;;;;;;;;1765184;79;21225;-77
2022/09/28 00:53:13;;;;;;;25.62;19.02;;;;;;;14.00;94.37;98302.41;1773719;79;21025;-76
2022/09/28 00:55:48;;;;;;;26.23;19.60;;;;;;;14.13;94.27;98303.56;1792419;79;21278;-74
2022/09/28 00:58:20;;;;;;;26.75;21.15;;;;;;;14.19;94.21;98309.86;1776921;79;21537;-75
2022/09/28 01:00:47;;;;;;;25.97;19.37;;;;;;;14.20;93.83;98308.00;1787878;79;21001;-75
2022/09/28 01:03:13;;;;;;;24.20;18.15;;;;;;;14.24;93.37;98309.20;1770498;79;21213;-75
2022/09/28 01:05:42;;;;;;;24.15;18.92;;;;;;;14.31;92.82;98304.56;1765178;79;21053;-75
2022/09/28 01:08:09;;;;;;;27.20;20.37;;;;;;;14.28;92.41;98311.18;1780033;79;21544;-76
2022/09/28 01:10:36;;;;;;;25.90;20.57;;;;;;;14.21;92.30;98306.97;1777529;79;21017;-77
2022/09/28 01:13:02;;;;;;;23.22;18.37;;;;;;;14.14;92.61;98296.39;1734683;81;21296;-78
2022/09/28 01:15:30;;;;;;;22.85;18.65;;;;;;;14.21;92.44;98302.97;1777864;79;21240;-78
2022/09/28 01:18:21;;;;;;;22.50;20.08;;;;;;;14.31;92.12;98300.05;1772392;79;21124;-78
2022/09/28 01:21:01;;;;;;;22.87;19.82;;;;;;;14.32;92.01;98296.86;1776652;79;21019;-78
2022/09/28 01:24:09;;;;;;;23.92;17.00;;;;;;;14.32;92.04;98300.86;1778056;79;21021;-77
2022/09/28 01:26:56;;;;;;;22.02;18.52;;;;;;;14.30;91.47;98295.73;1772339;79;21045;-78
2022/09/28 01:29:50;;;;;;;30.60;20.97;;;;;;;14.25;91.21;98296.93;1776345;79;21504;-76
2022/09/28 01:32:32;;;;;;;22.77;19.55;;;;;;;14.13;91.51;98308.91;1778139;79;21096;-77
2022/09/28 01:35:16;;;;;;;26.00;19.52;;;;;;;14.03;91.96;98308.64;1733276;79;21062;-75
2022/09/28 01:37:57;;;;;;;22.90;18.80;;;;;;;13.99;92.00;98302.13;1758496;79;21037;-77
2022/09/28 01:40:25;;;;;;;25.37;19.40;;;;;;;13.99;92.14;98305.33;1767634;79;21018;-77
2022/09/28 01:43:03;;;;;;;24.57;19.67;;;;;;;13.93;92.38;98306.51;1735586;81;21246;-76
2022/09/28 01:45:46;;;;;;;23.38;19.45;;;;;;;13.87;93.12;98302.08;1756877;79;21547;-76
2022/09/28 01:48:18;;;;;;;22.05;18.48;;;;;;;13.96;93.40;98302.56;1760406;79;21001;-74
2022/09/28 01:50:45;;;;;;;22.73;19.07;;;;;;;14.10;93.14;98300.03;1779643;79;21049;-76
2022/09/28 01:53:17;;;;;;;21.73;19.23;;;;;;;14.13;92.78;98295.55;1771939;79;21005;-76
2022/09/28 01:55:48;;;;;;;24.25;19.50;;;;;;;14.10;92.74;98293.36;1769640;79;21266;-76
2022/09/28 01:58:28;;;;;;;22.80;17.75;;;;;;;14.13;92.66;98290.22;1762440;80;21541;-76
2022/09/28 02:01:02;;;;;;;22.27;19.02;;;;;;;14.22;92.25;98288.05;1777675;79;21017;-74
2022/09/28 02:03:41;;;;;;;25.27;21.37;;;;;;;14.19;92.24;98292.50;1816749;78;21085;-74
2022/09/28 02:06:34;;;;;;;22.45;18.50;;;;;;;14.14;92.40;98293.72;1756663;79;21073;-74
2022/09/28 02:09:10;;;;;;;26.10;18.57;;;;;;;14.06;92.41;98295.35;1767495;79;21198;-75
2022/09/28 02:11:44;;;;;;;22.27;18.62;;;;;;;14.08;92.68;98293.27;1789764;78;21060;-75
2022/09/28 02:14:11;;;;;;;22.30;19.50;;;;;;;14.16;92.56;98299.13;1797785;78;21072;-74
2022/09/28 02:16:44;;;;;;;23.85;19.80;;;;;;;14.19;92.91;98307.72;1790817;78;21045;-75
2022/09/28 02:19:20;;;;;;;21.80;17.87;;;;;;;14.20;92.82;98307.50;1743877;81;21100;-75
2022/09/28 02:21:56;;;;;;;22.98;18.10;;;;;;;14.27;92.45;98302.05;1790925;78;21546;-75
2022/09/28 02:24:31;;;;;;;23.35;19.20;;;;;;;14.36;92.23;98299.36;1789525;80;21076;-76
2022/09/28 02:26:59;;;;;;;25.85;20.12;;;;;;;14.38;92.08;98302.61;1768658;78;21017;-74
2022/09/28 02:29:28;;;;;;;21.45;17.82;;;;;;;14.32;91.99;98292.32;1758647;79;21990;-74
2022/09/28 02:31:55;;;;;;;23.77;18.62;;;;;;;14.39;91.59;98296.25;1787832;79;21086;-72
2022/09/28 02:34:21;;;;;;;21.15;18.87;;;;;;;14.46;91.41;98292.13;1784391;78;21343;-73
2022/09/28 02:36:48;;;;;;;23.20;19.27;;;;;;;14.45;91.52;98292.66;1805658;79;21033;-73
2022/09/28 02:39:16;;;;;;;25.88;20.25;;;;;;;14.45;91.45;98293.19;1792122;78;21042;-74
2022/09/28 02:41:54;;;;;;;24.25;17.27;;;;;;;14.41;91.28;98289.31;1781037;78;21002;-73
2022/09/28 02:44:44;;;;;;;19.17;17.12;;;;;;;14.42;91.20;98290.42;1766062;78;21055;-75
2022/09/28 02:47:37;;;;;;;24.40;19.80;;;;;;;14.50;91.01;98287.95;1804375;78;21232;-71
2022/09/28 02:50:14;;;;;;;;;;;;;;;14.48;90.95;98295.38;1793316;79;21017;-74
2022/09/28 02:53:01;;;;;;;24.40;18.37;;;;;;;14.42;91.04;98299.78;1775910;79;20187;-71
2022/09/28 02:55:52;;;;;;;21.07;17.82;;;;;;;14.34;90.91;98304.92;1782393;79;21672;-72
2022/09/28 02:58:31;;;;;;;22.48;19.42;;;;;;;14.33;90.71;98300.64;1765386;79;21142;-72
2022/09/28 03:01:35;;;;;;;23.15;19.95;;;;;;;14.33;91.05;98309.16;1767501;79;21172;-74
2022/09/28 03:04:22;;;;;;;24.55;19.87;;;;;;;14.27;91.33;98305.53;1775439;80;21163;-71
2022/09/28 03:06:54;;;;;;;22.10;17.35;;;;;;;14.21;91.39;98309.11;1796017;79;21005;-74
2022/09/28 03:09:28;;;;;;;21.20;18.23;;;;;;;14.17;91.20;98313.28;1788080;79;21052;-72
2022/09/28 03:11:58;;;;;;;23.00;18.77;;;;;;;14.13;91.15;98309.44;1772045;79;21008;-71
2022/09/28 03:14:26;;;;;;;23.00;19.55;;;;;;;14.06;91.61;98304.70;1801354;78;21201;-72
2022/09/28 03:16:54;;;;;;;26.37;18.90;;;;;;;13.96;91.81;98309.23;1802502;78;21065;-74
2022/09/28 03:19:26;;;;;;;22.07;18.25;;;;;;;13.86;92.21;98308.44;1801146;78;21068;-74
2022/09/28 03:21:54;;;;;;;21.60;17.75;;;;;;;13.87;92.47;98304.74;1780713;79;21057;-73
2022/09/28 03:24:20;;;;;;;21.42;17.87;;;;;;;13.95;92.43;98298.28;1802708;79;21028;-74
2022/09/28 03:26:47;;;;;;;23.80;19.80;;;;;;;13.92;92.44;98304.06;1789713;79;21764;-73
2022/09/28 03:29:15;;;;;;;25.10;19.10;;;;;;;13.82;92.72;98304.59;1787908;79;20990;-75
2022/09/28 03:31:43;;;;;;;21.40;17.48;;;;;;;13.74;93.21;98304.38;1780328;79;21143;-75
2022/09/28 03:34:10;;;;;;;22.62;18.65;;;;;;;13.75;93.45;98308.69;1780621;79;21129;-74
2022/09/28 03:36:36;;;;;;;22.93;19.57;;;;;;;13.89;93.63;98311.20;1770272;79;21036;-73
2022/09/28 03:39:03;;;;;;;24.85;20.40;;;;;;;13.94;93.39;98306.79;1789640;78;21143;-74
2022/09/28 03:41:31;;;;;;;28.35;22.35;;;;;;;13.86;92.98;98308.44;1785493;79;21108;-73
2022/09/28 03:43:57;;;;;;;25.52;21.30;;;;;;;13.75;93.05;98307.84;1756041;80;21032;-73
2022/09/28 03:46:24;;;;;;;26.42;21.48;;;;;;;13.73;93.04;98305.92;1803123;78;21498;-72
2022/09/28 03:48:57;;;;;;;24.37;21.70;;;;;;;13.71;93.18;98310.17;1816216;78;21065;-74
2022/09/28 03:51:23;;;;;;;27.00;21.52;;;;;;;13.67;93.82;98310.83;1793702;78;21134;-75
2022/09/28 03:53:50;;;;;;;23.15;19.35;;;;;;;13.68;94.40;98307.94;1787671;78;21139;-73
2022/09/28 03:56:16;;;;;;;27.73;20.60;;;;;;;13.74;93.98;98303.56;1748230;80;21127;-75
2022/09/28 03:58:43;;;;;;;26.52;21.70;;;;;;;13.78;93.53;98310.09;1783648;79;21053;-74
2022/09/28 04:01:12;;;;;;;25.95;21.77;;;;;;;13.76;93.75;98302.82;1786776;79;21605;-75
2022/09/28 04:03:40;;;;;;;26.40;20.90;;;;;;;13.73;94.03;98303.26;1760489;79;21102;-74
2022/09/28 04:06:07;;;;;;;24.43;19.55;;;;;;;13.70;94.19;98308.53;1774754;79;21029;-73
2022/09/28 04:08:36;;;;;;;21.87;19.48;;;;;;;13.69;93.94;98308.22;1765255;79;21055;-75
2022/09/28 04:11:04;;;;;;;24.77;21.40;;;;;;;13.76;93.72;98320.17;1770963;79;21029;-74
2022/09/28 04:13:31;;;;;;;25.10;20.02;;;;;;;13.74;93.72;98319.05;1775954;79;21048;-75
2022/09/28 04:16:00;;;;;;;30.92;22.65;;;;;;;13.68;93.98;98317.81;1780586;79;21158;-75
2022/09/28 04:18:28;;;;;;;24.07;19.75;;;;;;;13.66;94.66;98311.36;1782760;79;21526;-75
2022/09/28 04:21:09;;;;;;;26.57;20.00;;;;;;;13.76;94.66;98306.30;1743623;79;21514;-73
2022/09/28 04:23:45;;;;;;;23.25;20.70;;;;;;;13.93;94.21;98309.18;1777879;79;21086;-73
2022/09/28 04:26:18;;;;;;;26.45;19.82;;;;;;;13.96;94.14;98312.75;1763074;81;21597;-74
2022/09/28 04:31:30;;;;;;;23.30;19.27;;;;;;;14.00;94.11;98301.59;1778337;78;20191;-74
2022/09/28 04:33:57;;;;;;;24.30;21.42;;;;;;;14.12;93.72;98310.49;1769112;79;21116;-76
2022/09/28 04:36:24;;;;;;;26.42;22.45;;;;;;;14.12;93.30;98309.16;1785532;78;21007;-77
2022/09/28 04:38:51;;;;;;;22.58;19.87;;;;;;;14.07;93.11;98314.35;1775804;79;21002;-76
2022/09/28 04:41:18;;;;;;;24.75;20.57;;;;;;;14.09;93.13;98310.41;1757428;80;21869;-78
2022/09/28 04:43:48;;;;;;;27.82;22.77;;;;;;;14.20;92.81;98308.84;1783692;80;21126;-76
2022/09/28 04:46:15;;;;;;;27.87;22.90;;;;;;;14.14;92.18;98303.88;1725847;79;21060;-77
2022/09/28 04:48:44;;;;;;;27.25;23.30;;;;;;;14.08;92.16;98309.29;1773336;80;21018;-76
2022/09/28 04:51:14;;;;;;;25.57;20.90;;;;;;;14.03;92.38;98307.84;1774161;80;21028;-76
2022/09/28 04:53:40;;;;;;;29.35;21.00;;;;;;;14.06;92.19;98306.87;1794840;78;21184;-75
2022/09/28 04:56:10;;;;;;;26.82;22.40;;;;;;;14.15;92.12;98307.35;1783651;79;21013;-74
2022/09/28 04:58:37;;;;;;;28.42;23.12;;;;;;;14.16;92.17;98307.66;1749540;78;21494;-75
2022/09/28 05:01:08;;;;;;;28.40;23.15;;;;;;;14.16;92.38;98304.99;1793403;78;21028;-76
2022/09/28 05:03:40;;;;;;;27.67;21.33;;;;;;;14.14;92.22;98308.41;1723155;80;21092;-75
2022/09/28 05:06:17;;;;;;;22.42;20.00;;;;;;;14.16;92.05;98298.31;1765128;79;21110;-75
2022/09/28 05:08:46;;;;;;;25.70;21.48;;;;;;;14.28;91.96;98295.16;1765106;80;21009;-74
2022/09/28 05:11:14;;;;;;;24.35;21.37;;;;;;;14.33;92.41;98293.13;1771660;79;21108;-75
2022/09/28 05:13:44;;;;;;;26.93;23.35;;;;;;;14.37;92.25;98294.33;1776771;79;21328;-75
2022/09/28 05:16:13;;;;;;;24.87;21.12;;;;;;;14.41;92.34;98292.83;1782360;79;21095;-78
2022/09/28 05:18:58;;;;;;;24.87;20.85;;;;;;;14.49;92.01;98290.34;1779461;79;21802;-75
2022/09/28 05:21:26;;;;;;;25.30;20.48;;;;;;;14.65;91.84;98297.71;1789715;79;21085;-75
2022/09/28 05:23:55;;;;;;;29.20;24.55;;;;;;;14.65;91.72;98302.25;1791961;79;21009;-75
2022/09/28 05:26:22;;;;;;;27.00;23.12;;;;;;;14.65;91.70;98300.92;1786034;79;21140;-76
2022/09/28 05:28:49;;;;;;;27.80;21.60;;;;;;;14.67;91.05;98295.63;1766024;79;21072;-75
2022/09/28 05:31:22;;;;;;;22.80;20.40;;;;;;;14.79;90.48;98294.30;1764666;79;22190;-78
2022/09/28 05:33:59;;;;;;;27.55;22.27;;;;;;;14.93;89.08;98296.23;1760153;79;21097;-75
2022/09/28 05:36:26;;;;;;;25.35;22.52;;;;;;;14.89;88.80;98298.58;1767975;79;21032;-77
2022/09/28 05:38:53;;;;;;;26.57;23.42;;;;;;;14.85;88.33;98293.91;1770406;79;21513;-75
2022/09/28 05:41:20;;;;;;;23.25;20.32;;;;;;;14.77;88.07;98291.58;1784385;79;21009;-76
2022/09/28 05:43:46;;;;;;;25.15;21.15;;;;;;;14.81;88.10;98288.73;1766401;79;21752;-73
2022/09/28 05:46:13;;;;;;;25.55;22.85;;;;;;;14.89;87.97;98293.23;1794532;79;21162;-75
2022/09/28 05:48:41;;;;;;;25.32;22.35;;;;;;;14.90;87.84;98295.38;1794982;79;21013;-75
2022/09/28 05:51:09;;;;;;;25.95;22.32;;;;;;;14.90;87.87;98301.53;1784382;79;21016;-76
2022/09/28 05:53:35;;;;;;;26.73;22.45;;;;;;;14.90;87.82;98300.72;1780288;79;21068;-78
2022/09/28 05:56:04;;;;;;;23.98;21.48;;;;;;;14.96;87.38;98305.14;1793614;79;21038;-76
2022/09/28 05:58:34;;;;;;;28.83;22.93;;;;;;;15.03;87.34;98308.52;1765457;79;21027;-75
2022/09/28 06:01:00;;;;;;;27.07;23.10;;;;;;;15.03;87.21;98308.52;1787949;78;21049;-77
2022/09/28 06:03:27;;;;;;;26.20;23.22;;;;;;;15.01;87.23;98311.95;1738394;80;21062;-76
2022/09/28 06:05:54;;;;;;;23.22;20.52;;;;;;;14.99;87.00;98311.38;1769534;79;21025;-78
2022/09/28 06:08:22;;;;;;;26.25;21.20;;;;;;;15.03;86.89;98307.72;1765931;78;21205;-77
2022/09/28 06:11:00;;;;;;;24.82;20.20;;;;;;;15.13;86.64;98311.95;1812698;78;21072;-77
2022/09/28 06:13:30;;;;;;;25.77;23.10;;;;;;;15.13;86.75;98308.75;1790106;78;21011;-76
2022/09/28 06:15:57;;;;;;;25.00;22.22;;;;;;;15.08;86.54;98299.79;1770256;79;21569;-77
2022/09/28 06:18:26;;;;;;;22.32;19.92;;;;;;;15.03;86.36;98313.87;1785258;79;21036;-77
2022/09/28 06:21:12;;;;;;;23.42;20.92;;;;;;;15.03;85.44;98315.20;1777072;80;21501;-77
2022/09/28 06:23:40;;;;;;;24.40;20.95;;;;;;;15.09;84.88;98310.80;1768889;79;21120;-78
2022/09/28 06:26:08;;;;;;;25.90;23.10;;;;;;;15.01;84.27;98311.11;1777374;79;21013;-77
2022/09/28 06:28:34;;;;;;;23.22;20.30;;;;;;;14.98;84.12;98315.08;1778173;79;21235;-79
2022/09/28 06:31:01;;;;;;;24.15;20.15;;;;;;;14.96;83.79;98313.16;1777619;79;21035;-76
2022/09/28 06:33:29;;;;;;;24.12;20.40;;;;;;;14.93;83.16;98316.28;1780984;79;21713;-77
2022/09/28 06:35:58;;;;;;;26.12;21.07;;;;;;;14.80;82.81;98307.97;1787912;79;21069;-77
2022/09/28 06:38:25;;;;;;;26.02;22.27;;;;;;;14.68;83.91;98302.61;1763287;79;21084;-77
2022/09/28 06:40:51;;;;;;;27.40;21.65;;;;;;;14.66;84.46;98303.86;1801876;79;21591;-77
2022/09/28 06:43:18;;;;;;;23.55;20.08;;;;;;;14.67;85.23;98303.64;1763328;80;21544;-76
2022/09/28 06:46:03;;;;;;;23.92;20.45;;;;;;;14.75;84.88;98293.14;1777017;79;21244;-77
2022/09/28 06:48:49;;;;;;;22.70;20.37;;;;;;;14.85;84.05;98288.56;1778882;79;21020;-77
2022/09/28 06:51:20;;;;;;;27.62;21.48;;;;;;;14.78;83.00;98290.55;1762587;80;21040;-78
2022/09/28 06:53:55;;;;;;;25.27;22.62;;;;;;;14.66;83.07;98284.66;1776558;79;21057;-77
2022/09/28 06:56:39;;;;;;;23.27;19.05;;;;;;;14.60;83.48;98282.08;1782010;78;21000;-79
2022/09/28 06:59:06;;;;;;;29.20;20.27;;;;;;;14.60;82.95;98280.20;1795715;78;21033;-79
2022/09/28 07:01:35;;;;;;;26.23;21.15;;;;;;;14.67;83.53;98283.59;1805075;78;21044;-79
2022/09/28 07:04:18;;;;;;;27.10;23.57;;;;;;;14.69;83.78;98277.50;1797716;78;21119;-78
2022/09/28 07:07:03;;;;;;;23.87;21.27;;;;;;;14.70;83.74;98275.66;1793724;78;21006;-82
2022/09/28 07:09:54;;;;;;;24.40;20.82;;;;;;;14.71;84.22;98279.95;1808147;78;21065;-84
2022/09/28 07:12:23;;;;;;;24.32;20.62;;;;;;;14.79;83.58;98279.59;1802382;78;21305;-83
2022/09/28 07:14:56;;;;;;;24.85;21.37;;;;;;;14.89;83.67;98277.19;1781745;78;21085;-82
2022/09/28 07:17:24;;;;;;;23.87;21.37;;;;;;;14.92;83.08;98276.70;1803893;78;21044;-83
2022/09/28 07:19:52;;;;;;;27.40;23.30;;;;;;;14.85;82.33;98280.53;1796119;78;21513;-83
2022/09/28 07:22:19;;;;;;;22.73;19.02;;;;;;;14.72;82.71;98275.71;1790529;78;21584;-84
2022/09/28 07:24:47;;;;;;;23.75;19.62;;;;;;;14.73;82.95;98276.52;1802636;78;20969;-83
2022/09/28 07:27:35;;;;;;;24.65;20.40;;;;;;;14.80;82.57;98277.77;1799547;78;21120;-82
2022/09/28 07:30:20;;;;;;;23.90;21.27;;;;;;;14.71;82.61;98283.42;1797047;78;21044;-84
2022/09/28 07:32:54;;;;;;;23.62;20.25;;;;;;;14.64;83.28;98281.41;1792737;78;21524;-83
2022/09/28 07:35:41;;;;;;;19.30;17.25;;;;;;;14.60;82.60;98278.87;1789856;77;21061;-84
2022/09/28 07:38:09;;;;;;;20.43;16.95;;;;;;;14.60;82.40;98285.55;1766640;79;21899;-84
2022/09/28 07:43:23;;;;;;;21.12;18.98;;;;;;;14.51;82.00;98274.89;1753827;79;21043;-84
2022/09/28 07:45:52;;;;;;;19.87;17.30;;;;;;;14.42;82.30;98274.92;1772521;79;21070;-84
2022/09/28 07:48:20;;;;;;;19.17;16.87;;;;;;;14.43;82.62;98269.86;1764421;78;21576;-80
2022/09/28 07:50:56;;;;;;;19.10;16.15;;;;;;;14.58;83.02;98274.28;1782314;78;21126;-80
2022/09/28 07:53:33;;;;;;;20.40;18.12;;;;;;;14.63;82.52;98275.75;1771077;79;21025;-79
2022/09/28 07:56:07;;;;;;;20.77;18.27;;;;;;;14.68;83.19;98267.87;1718775;79;21141;-81
2022/09/28 07:58:36;;;;;;;19.65;17.55;;;;;;;14.78;83.04;98276.66;1768317;79;20990;-82
2022/09/28 08:01:20;;;;;;;20.95;17.10;;;;;;;14.86;81.85;98272.82;1642259;83;21120;-81
2022/09/28 08:03:47;;;;;;;18.45;16.42;;;;;;;14.89;81.28;98277.19;1741983;79;21566;-82
2022/09/28 08:06:15;;;;;;;17.60;15.80;;;;;;;14.98;81.02;98275.50;1757059;80;20978;-81
2022/09/28 08:08:43;;;;;;;19.73;15.90;;;;;;;15.11;80.96;98275.27;1768178;79;21080;-82
2022/09/28 08:11:12;;;;;;;22.52;18.32;;;;;;;15.18;81.46;98273.27;1755168;79;21017;-80
2022/09/28 08:13:55;;;;;;;18.32;16.40;;;;;;;15.28;81.62;98270.03;1735503;80;21074;-78
2022/09/28 08:16:23;;;;;;;19.87;17.85;;;;;;;15.41;80.91;98266.27;1775193;79;21901;-78
2022/09/28 08:19:03;;;;;;;18.32;14.85;;;;;;;15.49;80.43;98266.73;1731524;80;21112;-81
2022/09/28 08:21:45;;;;;;;18.17;16.17;;;;;;;15.68;80.45;98256.68;1772561;79;21062;-80
2022/09/28 08:24:14;;;;;;;17.65;15.30;;;;;;;15.86;79.53;98257.58;1753671;80;21560;-80
2022/09/28 08:26:43;;;;;;;18.23;16.40;;;;;;;15.89;78.69;98259.23;1759135;80;21553;-81
2022/09/28 08:29:12;;;;;;;17.57;15.28;;;;;;;15.90;78.72;98262.75;1747451;79;21243;-83
2022/09/28 08:31:50;;;;;;;18.35;14.95;;;;;;;15.91;77.84;98264.36;1769292;79;20977;-80
2022/09/28 08:34:21;;;;;;;16.85;15.05;;;;;;;15.84;77.26;98272.55;1768705;79;21057;-80
2022/09/28 08:37:08;;;;;;;17.80;14.60;;;;;;;15.78;77.35;98275.34;1770338;79;21948;-81
2022/09/28 08:39:53;;;;;;;16.40;14.65;;;;;;;15.82;77.96;98275.98;1765288;79;21117;-80
2022/09/28 08:42:41;;;;;;;17.57;15.50;;;;;;;15.90;77.83;98267.57;1754076;79;21270;-82
2022/09/28 08:45:25;;;;;;;16.60;14.87;;;;;;;15.91;77.85;98263.83;1649718;84;26727;-80
2022/09/28 08:51:15;;;;;;;19.05;15.78;;;;;;;15.70;78.01;98263.11;1681685;83;21230;-84
2022/09/28 08:54:37;;;;;;;19.98;16.67;;;;;;;15.70;78.42;98267.97;1776465;79;21018;-85
2022/09/28 08:57:19;;;;;;;17.67;15.45;;;;;;;15.85;78.41;98262.10;1772727;79;21200;-84
2022/09/28 08:59:53;;;;;;;18.25;16.27;;;;;;;16.08;77.73;98259.86;1768211;79;21019;-81
2022/09/28 09:02:32;;;;;;;17.65;15.88;;;;;;;16.39;78.54;98256.37;1773157;78;21001;-82
2022/09/28 09:05:03;;;;;;;19.20;17.12;;;;;;;16.77;79.05;98252.72;1770052;78;20980;-84
2022/09/28 09:07:46;;;;;;;19.10;15.03;;;;;;;17.12;76.89;98255.14;1803375;78;21185;-82
2022/09/28 09:10:43;;;;;;;17.15;15.28;;;;;;;17.37;75.06;98252.52;1800701;77;21532;-82
2022/09/28 09:13:51;;;;;;;16.90;15.20;;;;;;;17.61;74.81;98259.25;1763205;80;21118;-83
2022/09/28 09:16:45;;;;;;;18.32;16.42;;;;;;;17.66;72.41;98256.64;1768375;79;21053;-85
2022/09/28 09:19:41;;;;;;;19.95;16.50;;;;;;;17.56;72.09;98261.89;1824760;77;20981;-81
2022/09/28 09:22:19;;;;;;;20.52;16.37;;;;;;;17.46;73.30;98265.27;1808898;77;21016;-83
2022/09/28 09:24:51;;;;;;;17.65;15.85;;;;;;;17.47;73.82;98265.53;1797736;77;21160;-82
2022/09/28 09:27:40;;;;;;;19.48;16.73;;;;;;;17.52;73.57;98253.22;1837966;75;21022;-83
2022/09/28 09:30:12;;;;;;;19.50;17.20;;;;;;;17.55;73.09;98249.52;1838170;77;21049;-81
2022/09/28 09:33:06;;;;;;;17.57;15.83;;;;;;;17.57;73.02;98257.33;1834874;75;21056;-84
2022/09/28 09:35:59;;;;;;;16.75;14.13;;;;;;;17.67;73.21;98250.73;1831149;76;21639;-82
2022/09/28 09:39:04;;;;;;;17.15;15.35;;;;;;;17.76;71.13;98256.48;1843552;76;21628;-83
2022/09/28 09:42:16;;;;;;;17.82;15.93;;;;;;;17.94;71.53;98245.96;1840915;76;20989;-83
2022/09/28 09:45:14;;;;;;;18.02;16.05;;;;;;;18.08;73.45;98247.20;1788240;78;20954;-80
2022/09/28 09:47:46;;;;;;;17.42;15.58;;;;;;;18.25;73.67;98243.04;1826928;77;21450;-82
2022/09/28 09:50:34;;;;;;;18.48;16.27;;;;;;;18.44;72.88;98242.14;1830479;76;21547;-81
2022/09/28 09:53:18;;;;;;;17.92;16.02;;;;;;;18.56;72.24;98256.75;1803156;79;21146;-82
2022/09/28 09:55:49;;;;;;;18.67;16.57;;;;;;;18.57;70.54;98251.67;1769106;79;21024;-82
2022/09/28 09:58:26;;;;;;;18.42;16.48;;;;;;;18.55;70.97;98253.80;1798478;79;21061;-79
2022/09/28 10:00:54;;;;;;;17.95;15.45;;;;;;;18.43;69.78;98255.32;1757246;80;21034;-80
2022/09/28 10:03:29;;;;;;;17.73;15.83;;;;;;;18.31;69.95;98257.34;1802142;78;21195;-85
2022/09/28 10:06:03;;;;;;;17.87;16.05;;;;;;;18.21;69.09;98259.40;1794715;78;21223;-85
2022/09/28 10:08:33;;;;;;;19.20;16.35;;;;;;;18.03;69.76;98260.03;1779980;78;21880;-85
2022/09/28 10:11:20;;;;;;;18.60;16.70;;;;;;;17.93;70.46;98267.19;1774374;78;21005;-85
2022/09/28 10:13:48;;;;;;;17.12;14.98;;;;;;;17.85;70.65;98264.41;1812623;78;21001;-82
2022/09/28 10:16:17;;;;;;;17.17;15.38;;;;;;;17.83;69.69;98261.14;1793794;78;21006;-84
2022/09/28 10:18:48;;;;;;;17.12;15.40;;;;;;;17.72;70.21;98258.05;1807964;78;21217;-82
2022/09/28 10:21:36;;;;;;;17.37;15.32;;;;;;;17.63;70.66;98262.50;1801334;78;21049;-82
2022/09/28 10:24:13;;;;;;;18.10;15.13;;;;;;;17.61;70.81;98255.22;1758504;79;21096;-82
2022/09/28 10:26:44;;;;;;;17.37;15.55;;;;;;;17.61;71.19;98261.94;1766176;79;21874;-81
2022/09/28 10:29:25;;;;;;;17.20;15.50;;;;;;;17.60;71.62;98254.95;1782304;79;21104;-84
2022/09/28 10:31:53;;;;;;;17.62;15.68;;;;;;;17.57;71.96;98260.02;1766158;79;21244;-82
2022/09/28 10:34:27;;;;;;;16.52;14.23;;;;;;;17.56;72.14;98266.42;1761814;80;21014;-81
2022/09/28 10:37:00;;;;;;;18.52;14.75;;;;;;;17.53;72.05;98257.55;1754056;80;20999;-82
2022/09/28 10:39:45;;;;;;;17.70;13.65;;;;;;;17.45;71.73;98262.82;1779593;80;20947;-83
2022/09/28 10:42:19;;;;;;;14.85;13.20;;;;;;;17.45;72.00;98260.94;1739087;80;21042;-83
2022/09/28 10:45:05;;;;;;;14.60;12.93;;;;;;;17.52;72.08;98264.80;1766753;80;21470;-84
2022/09/28 10:47:34;;;;;;;15.60;13.85;;;;;;;17.48;72.07;98264.98;1774885;79;21009;-80
2022/09/28 10:50:01;;;;;;;16.70;14.95;;;;;;;17.43;72.49;98268.43;1795588;78;20974;-82
2022/09/28 10:52:36;;;;;;;16.80;15.03;;;;;;;17.38;72.42;98262.98;1784797;78;21012;-84
2022/09/28 10:55:28;;;;;;;18.57;13.60;;;;;;;17.30;73.26;98256.17;1794908;78;20880;-84
2022/09/28 10:57:55;;;;;;;16.25;13.88;;;;;;;17.37;73.35;98253.33;1768393;80;21244;-82
2022/09/28 11:00:41;;;;;;;18.35;14.60;;;;;;;17.54;73.56;98255.13;1786223;79;21024;-82
2022/09/28 11:03:24;;;;;;;18.00;15.65;;;;;;;17.61;73.62;98259.79;1793366;78;21064;-81
2022/09/28 11:06:03;;;;;;;20.27;15.68;;;;;;;17.63;73.10;98264.38;1795200;78;21446;-83
2022/09/28 11:08:39;;;;;;;18.37;16.48;;;;;;;17.60;72.78;98260.87;1775649;79;21010;-82
2022/09/28 11:11:12;;;;;;;19.40;17.40;;;;;;;17.53;72.89;98253.52;1765802;78;21307;-82
2022/09/28 11:13:50;;;;;;;17.40;15.60;;;;;;;17.48;73.08;98262.30;1804031;78;20974;-81
2022/09/28 11:16:28;;;;;;;17.73;15.90;;;;;;;17.42;73.23;98261.45;1762422;79;21652;-80
2022/09/28 11:18:57;;;;;;;16.48;14.68;;;;;;;17.35;73.49;98258.13;1782588;79;21001;-79
2022/09/28 11:21:27;;;;;;;17.67;15.35;;;;;;;17.42;73.74;98259.28;1772653;79;21584;-82
2022/09/28 11:24:15;;;;;;;17.52;15.55;;;;;;;17.58;73.75;98257.63;1785236;79;21122;-82
2022/09/28 11:26:45;;;;;;;19.05;16.55;;;;;;;17.58;73.77;98259.77;1779786;79;21111;-79
2022/09/28 11:29:25;;;;;;;17.80;15.03;;;;;;;17.57;73.43;98252.77;1793007;78;21575;-77
2022/09/28 11:32:03;;;;;;;19.17;16.55;;;;;;;17.54;73.20;98249.76;1775084;78;21061;-75
2022/09/28 11:34:44;;;;;;;18.62;16.60;;;;;;;17.47;73.43;98260.70;1779722;79;21009;-77
2022/09/28 11:37:38;;;;;;;18.77;16.77;;;;;;;17.46;73.50;98253.19;1786473;79;21119;-77
2022/09/28 11:40:26;;;;;;;18.65;15.58;;;;;;;17.42;73.68;98257.94;1782290;79;21002;-82
2022/09/28 11:43:21;;;;;;;18.40;15.60;;;;;;;17.32;73.98;98261.30;1785719;79;21002;-81
2022/09/28 11:46:16;;;;;;;19.57;16.93;;;;;;;17.31;73.91;98259.69;1765328;79;21466;-81
2022/09/28 11:48:51;;;;;;;18.82;15.45;;;;;;;17.29;74.00;98264.50;1791036;79;21628;-82
2022/09/28 11:51:29;;;;;;;17.50;15.58;;;;;;;17.18;74.25;98264.07;1774682;78;21141;-82
2022/09/28 11:54:02;;;;;;;19.87;16.02;;;;;;;17.04;74.56;98259.05;1789325;78;20988;-82
2022/09/28 11:56:45;;;;;;;18.90;16.07;;;;;;;16.98;74.72;98256.52;1807196;78;20974;-83
2022/09/28 11:59:32;;;;;;;19.35;15.60;;;;;;;16.94;75.12;98258.91;1765034;79;21065;-82
2022/09/28 12:02:04;;;;;;;20.82;16.75;;;;;;;17.00;75.15;98263.83;1789605;78;21045;-82